Time;durP1;ratioP1;P1;durP2;ratioP2;P2;SDS_P1;SDS_P2;PMS_P1;PMS_P2;Temp;Humidity;BMP_temperature;BMP_pressure;BME280_temperature;BME280_humidity;BME280_pressure;Samples;Min_cycle;Max_cycle;Signal;HPM_P1;HPM_P2
2022/07/28 00:01:37;;;;;;;14.70;2.53;;;;;;;14.73;100.00;101612.19;5059299;28;20037;-81
2022/07/28 00:04:03;;;;;;;12.73;3.10;;;;;;;14.76;100.00;101615.56;5023776;28;20025;-81
2022/07/28 00:06:29;;;;;;;8.57;2.10;;;;;;;14.63;100.00;101618.47;5042309;28;20499;-81
2022/07/28 00:08:54;;;;;;;10.25;2.42;;;;;;;14.68;100.00;101629.97;5078173;28;20040;-81
2022/07/28 00:11:20;;;;;;;10.75;2.45;;;;;;;14.64;100.00;101619.34;5077049;28;20025;-80
2022/07/28 00:13:45;;;;;;;7.78;2.72;;;;;;;14.63;100.00;101618.47;5069599;28;20075;-81
2022/07/28 00:16:11;;;;;;;14.88;2.25;;;;;;;14.60;100.00;101615.97;5043885;28;20051;-81
2022/07/28 00:18:37;;;;;;;6.53;2.20;;;;;;;14.65;100.00;101604.56;5026237;28;20072;-81
2022/07/28 00:21:03;;;;;;;10.43;2.67;;;;;;;14.69;100.00;101597.78;5060547;28;20032;-81
2022/07/28 00:23:28;;;;;;;15.63;2.45;;;;;;;14.54;100.00;101602.66;5074599;28;20037;-81
2022/07/28 00:25:54;;;;;;;7.75;2.15;;;;;;;14.57;100.00;101610.69;5077125;28;20036;-80
2022/07/28 00:28:19;;;;;;;12.82;2.72;;;;;;;14.45;100.00;101598.81;5076861;28;20024;-81
2022/07/28 00:30:45;;;;;;;12.55;3.17;;;;;;;14.55;100.00;101607.19;5042856;28;20055;-81
2022/07/28 00:33:11;;;;;;;11.30;3.03;;;;;;;14.47;100.00;101593.19;5087685;28;20052;-81
2022/07/28 00:35:36;;;;;;;12.05;2.13;;;;;;;14.47;100.00;101602.31;5047500;28;20043;-81
2022/07/28 00:38:01;;;;;;;16.92;2.45;;;;;;;14.40;100.00;101591.94;5098680;28;20119;-81
2022/07/28 00:43:13;;;;;;;13.27;2.85;;;;;;;14.34;100.00;101591.44;5079285;28;20044;-81
2022/07/28 00:45:38;;;;;;;11.55;2.20;;;;;;;14.37;100.00;101592.22;5079701;28;20441;-81
2022/07/28 00:48:04;;;;;;;8.95;2.63;;;;;;;14.32;100.00;101578.81;5098383;28;20036;-81
2022/07/28 00:50:29;;;;;;;13.30;2.30;;;;;;;14.26;100.00;101590.34;5091966;28;20032;-80
2022/07/28 00:52:56;;;;;;;14.00;3.03;;;;;;;14.19;100.00;101597.38;5078794;28;20158;-81
2022/07/28 00:55:22;;;;;;;9.43;2.40;;;;;;;14.22;100.00;101592.47;5035859;28;20498;-80
2022/07/28 00:57:47;;;;;;;7.95;2.45;;;;;;;14.10;100.00;101599.88;5098132;28;20044;-80
2022/07/28 01:00:13;;;;;;;6.25;2.67;;;;;;;14.17;100.00;101591.97;5079958;28;20044;-81
2022/07/28 01:02:41;;;;;;;11.23;2.28;;;;;;;14.14;100.00;101594.97;5047525;28;20032;-81
2022/07/28 01:05:08;;;;;;;11.02;2.35;;;;;;;14.03;100.00;101587.59;5059403;28;20028;-81
2022/07/28 01:07:40;;;;;;;11.30;2.35;;;;;;;14.02;100.00;101590.47;5052973;28;20134;-80
2022/07/28 01:10:12;;;;;;;13.52;2.85;;;;;;;14.01;100.00;101589.59;5078793;28;20077;-81
2022/07/28 01:12:57;;;;;;;16.60;3.38;;;;;;;13.97;100.00;101588.13;5063189;28;20060;-81
2022/07/28 01:15:32;;;;;;;9.52;2.70;;;;;;;13.91;100.00;101594.13;5084359;28;20020;-81
2022/07/28 01:18:09;;;;;;;8.85;2.28;;;;;;;13.94;100.00;101585.63;5079568;28;20036;-81
2022/07/28 01:20:40;;;;;;;6.40;2.40;;;;;;;13.88;100.00;101577.84;5078682;28;20040;-81
2022/07/28 01:23:31;;;;;;;26.55;4.35;;;;;;;13.98;100.00;101585.22;5098121;28;20520;-81
2022/07/28 01:26:12;;;;;;;9.05;1.98;;;;;;;13.95;100.00;101581.84;5098092;28;20402;-81
2022/07/28 01:28:41;;;;;;;11.32;2.28;;;;;;;13.94;100.00;101582.88;5080624;28;20036;-81
2022/07/28 01:31:10;;;;;;;8.95;2.17;;;;;;;13.93;100.00;101575.59;5064130;28;20036;-81
2022/07/28 01:33:47;;;;;;;12.43;2.55;;;;;;;13.75;100.00;101561.44;5101889;28;20396;-81
2022/07/28 01:36:20;;;;;;;12.63;1.92;;;;;;;13.75;100.00;101576.09;5102178;28;20035;-81
2022/07/28 01:38:47;;;;;;;10.48;1.98;;;;;;;13.70;100.00;101581.09;5083498;28;20027;-81
2022/07/28 01:41:26;;;;;;;14.23;2.05;;;;;;;13.71;100.00;101576.47;5080245;28;20028;-81
2022/07/28 01:44:04;;;;;;;8.73;1.90;;;;;;;13.70;100.00;101575.59;5082841;28;20028;-81
2022/07/28 01:46:31;;;;;;;6.03;2.08;;;;;;;13.63;100.00;101574.34;5084405;28;20031;-81
2022/07/28 01:48:57;;;;;;;9.45;2.10;;;;;;;13.59;100.00;101570.06;5066255;28;20483;-81
2022/07/28 01:51:26;;;;;;;13.80;2.60;;;;;;;13.58;100.00;101582.97;5067338;28;20028;-81
2022/07/28 01:53:54;;;;;;;8.40;2.00;;;;;;;13.65;100.00;101572.31;5089520;28;20476;-81
2022/07/28 01:56:21;;;;;;;11.45;2.55;;;;;;;13.53;100.00;101578.84;5072073;28;20028;-81
2022/07/28 01:58:50;;;;;;;10.60;2.78;;;;;;;13.54;100.00;101569.56;5095060;28;20163;-81
2022/07/28 02:01:18;;;;;;;7.15;2.30;;;;;;;13.51;100.00;101572.56;5072414;28;20035;-82
2022/07/28 02:03:45;;;;;;;6.30;2.13;;;;;;;13.52;100.00;101568.81;5072509;28;20077;-82
2022/07/28 02:06:14;;;;;;;6.97;1.95;;;;;;;13.28;100.00;101561.50;5085335;28;20036;-82
2022/07/28 02:08:42;;;;;;;7.20;2.00;;;;;;;13.31;100.00;101557.63;5090730;28;20361;-81
2022/07/28 02:13:55;;;;;;;19.08;2.30;;;;;;;13.24;100.00;101557.22;5085897;28;20391;-81
2022/07/28 02:16:23;;;;;;;8.13;1.90;;;;;;;13.08;100.00;101542.94;5063348;28;20032;-81
2022/07/28 02:18:52;;;;;;;7.85;1.90;;;;;;;13.14;100.00;101546.09;5070764;28;20044;-81
2022/07/28 02:21:19;;;;;;;13.57;2.55;;;;;;;13.20;100.00;101544.75;5052142;28;20020;-81
2022/07/28 02:23:47;;;;;;;14.02;2.53;;;;;;;13.06;100.00;101548.56;5081910;28;20946;-80
2022/07/28 02:26:15;;;;;;;8.32;2.10;;;;;;;13.05;100.00;101544.03;5099515;28;20031;-81
2022/07/28 02:28:42;;;;;;;8.88;1.98;;;;;;;13.08;100.00;101549.31;5080025;28;20047;-82
2022/07/28 02:31:15;;;;;;;14.00;2.65;;;;;;;13.05;100.00;101541.28;5062093;28;20122;-82
2022/07/28 02:33:42;;;;;;;18.60;2.65;;;;;;;12.92;100.00;101513.03;5069478;28;20037;-82
2022/07/28 02:36:32;;;;;;;10.43;2.95;;;;;;;13.07;100.00;101544.81;5061149;28;20028;-82
2022/07/28 02:39:06;;;;;;;11.27;2.50;;;;;;;12.97;100.00;101533.69;5078740;28;20032;-82
2022/07/28 02:41:41;;;;;;;14.60;2.35;;;;;;;12.97;100.00;101533.69;5056164;28;20361;-81
2022/07/28 02:44:20;;;;;;;13.07;2.67;;;;;;;12.93;100.00;101523.03;5073221;28;20479;-81
2022/07/28 02:46:50;;;;;;;17.85;2.35;;;;;;;12.95;100.00;101524.66;5077758;28;20048;-81
2022/07/28 02:49:20;;;;;;;10.10;2.22;;;;;;;12.95;100.00;101529.28;5078353;28;20506;-82
2022/07/28 02:51:48;;;;;;;13.35;2.42;;;;;;;12.93;100.00;101529.41;5078571;28;20107;-82
2022/07/28 02:54:18;;;;;;;10.25;2.60;;;;;;;12.83;100.00;101532.00;5040063;28;20037;-82
2022/07/28 02:56:46;;;;;;;11.63;3.17;;;;;;;12.93;100.00;101523.03;5074806;28;20060;-82
2022/07/28 02:59:13;;;;;;;10.00;2.03;;;;;;;12.91;100.00;101527.78;5079090;28;20036;-82
2022/07/28 03:01:42;;;;;;;9.52;2.63;;;;;;;12.85;100.00;101518.13;5072556;28;20068;-82
2022/07/28 03:04:09;;;;;;;10.60;2.60;;;;;;;12.74;100.00;101531.81;5064498;28;20020;-81
2022/07/28 03:06:34;;;;;;;10.30;2.10;;;;;;;12.81;100.00;101539.50;5078604;28;20392;-81
2022/07/28 03:09:00;;;;;;;7.65;2.00;;;;;;;12.82;100.00;101537.59;5060834;28;20040;-81
2022/07/28 03:11:26;;;;;;;6.97;2.47;;;;;;;12.80;100.00;101534.09;5077659;28;20398;-81
2022/07/28 03:13:52;;;;;;;5.95;2.38;;;;;;;12.85;100.00;101537.38;5041252;28;20502;-81
2022/07/28 03:16:17;;;;;;;6.75;2.08;;;;;;;12.69;100.00;101535.81;5068117;28;20491;-81
2022/07/28 03:18:43;;;;;;;13.18;2.78;;;;;;;12.62;100.00;101534.53;5066296;28;20033;-81
2022/07/28 03:21:09;;;;;;;14.98;2.33;;;;;;;12.66;100.00;101530.56;5073241;28;20098;-81
2022/07/28 03:23:44;;;;;;;8.20;2.60;;;;;;;12.58;100.00;101532.16;5076490;28;20028;-82
2022/07/28 03:26:34;;;;;;;11.45;3.00;;;;;;;12.64;100.00;101540.81;5075352;28;20480;-81
2022/07/28 03:29:01;;;;;;;11.10;3.00;;;;;;;12.55;100.00;101546.13;5076992;28;20036;-81
2022/07/28 03:31:29;;;;;;;12.90;3.00;;;;;;;12.48;100.00;101548.47;5040106;28;20029;-81
2022/07/28 03:33:55;;;;;;;16.27;3.25;;;;;;;12.39;100.00;101552.75;5071918;28;20630;-81
2022/07/28 03:36:28;;;;;;;17.02;3.05;;;;;;;12.38;100.00;101548.28;5067307;28;20046;-81
2022/07/28 03:39:00;;;;;;;9.70;3.40;;;;;;;12.31;100.00;101560.72;5042235;28;20048;-81
2022/07/28 03:41:28;;;;;;;8.13;3.07;;;;;;;12.33;100.00;101553.25;5076819;28;20043;-81
2022/07/28 03:43:55;;;;;;;9.02;2.55;;;;;;;12.26;100.00;101546.44;5043878;28;20279;-81
2022/07/28 03:46:22;;;;;;;12.15;3.20;;;;;;;12.18;100.00;101549.75;5053565;28;20037;-81
2022/07/28 03:48:47;;;;;;;8.93;3.22;;;;;;;12.14;100.00;101549.13;5039982;28;20041;-82
2022/07/28 03:51:13;;;;;;;16.88;3.58;;;;;;;12.13;100.00;101554.72;5077467;28;20049;-82
2022/07/28 03:53:40;;;;;;;14.45;3.80;;;;;;;11.97;100.00;101548.63;5076548;28;20032;-82
2022/07/28 03:56:05;;;;;;;19.02;3.55;;;;;;;11.98;100.00;101556.75;5076367;28;20039;-81
2022/07/28 03:58:31;;;;;;;13.38;3.90;;;;;;;11.92;100.00;101541.63;5073194;28;20032;-81
2022/07/28 04:00:57;;;;;;;7.40;3.38;;;;;;;12.07;100.00;101564.31;5076702;28;20035;-81
2022/07/28 04:03:24;;;;;;;13.27;3.60;;;;;;;12.01;100.00;101559.25;5077067;28;20024;-81
2022/07/28 04:05:49;;;;;;;12.35;3.58;;;;;;;12.03;100.00;101548.19;5058220;28;20135;-82
2022/07/28 04:08:15;;;;;;;17.08;4.20;;;;;;;12.01;100.00;101541.94;5076466;28;20064;-82
2022/07/28 04:10:40;;;;;;;10.07;4.07;;;;;;;12.00;100.00;101545.66;5040622;28;20086;-79
2022/07/28 04:13:06;;;;;;;12.27;3.70;;;;;;;12.08;100.00;101537.72;5077182;28;20035;-81
2022/07/28 04:15:33;;;;;;;11.68;3.28;;;;;;;11.93;100.00;101537.88;5077492;28;20032;-82
2022/07/28 04:17:59;;;;;;;11.77;3.95;;;;;;;12.05;100.00;101533.34;5056005;28;20032;-82
2022/07/28 04:20:26;;;;;;;14.18;3.40;;;;;;;11.98;100.00;101543.03;5057100;28;20123;-82
2022/07/28 04:22:53;;;;;;;10.52;3.53;;;;;;;12.00;100.00;101542.91;5076311;28;20434;-82
2022/07/28 04:25:21;;;;;;;15.40;4.45;;;;;;;12.02;100.00;101544.56;5059704;28;20040;-82
2022/07/28 04:27:51;;;;;;;;;;;;;;;12.08;100.00;101538.59;5065304;28;20025;-82
2022/07/28 04:30:24;;;;;;;8.15;4.32;;;;;;;12.03;100.00;101543.56;5074885;28;19912;-81
2022/07/28 04:32:53;;;;;;;13.75;3.80;;;;;;;12.10;100.00;101524.75;5077272;28;20079;-80
2022/07/28 04:35:19;;;;;;;15.05;4.22;;;;;;;12.18;100.00;101536.03;5095388;28;20036;-80
2022/07/28 04:37:47;;;;;;;14.07;4.78;;;;;;;12.20;100.00;101531.34;5077384;28;20063;-80
2022/07/28 04:40:13;;;;;;;14.40;4.10;;;;;;;12.32;100.00;101538.63;5078135;28;20036;-79
2022/07/28 04:42:39;;;;;;;25.27;3.97;;;;;;;12.25;100.00;101531.00;5077744;28;20036;-80
2022/07/28 04:45:06;;;;;;;13.52;4.00;;;;;;;12.31;100.00;101534.16;5056629;28;20038;-79
2022/07/28 04:47:32;;;;;;;14.38;4.20;;;;;;;12.41;100.00;101542.56;5063664;28;20048;-80
2022/07/28 04:49:57;;;;;;;24.45;5.05;;;;;;;12.60;100.00;101541.16;5076584;28;20046;-81
2022/07/28 04:52:24;;;;;;;22.73;4.22;;;;;;;12.62;100.00;101537.28;5038154;28;20028;-80
2022/07/28 04:54:50;;;;;;;25.13;4.90;;;;;;;12.60;100.00;101543.91;5078984;28;20035;-79
2022/07/28 04:57:15;;;;;;;18.58;4.22;;;;;;;12.66;100.00;101547.03;5062405;28;20024;-80
2022/07/28 04:59:41;;;;;;;15.77;4.65;;;;;;;12.58;100.00;101541.25;5074362;28;20103;-82
2022/07/28 05:02:07;;;;;;;13.05;5.10;;;;;;;12.67;100.00;101536.91;5078181;28;20036;-80
2022/07/28 05:04:32;;;;;;;21.83;4.80;;;;;;;12.66;100.00;101535.19;5060947;28;20484;-81
2022/07/28 05:06:58;;;;;;;15.82;5.32;;;;;;;12.67;100.00;101531.44;5072275;28;20040;-81
2022/07/28 05:09:24;;;;;;;12.02;4.75;;;;;;;12.72;100.00;101547.56;5083489;28;20055;-80
2022/07/28 05:11:50;;;;;;;17.70;5.55;;;;;;;12.90;100.00;101545.25;5082297;28;20036;-81
2022/07/28 05:14:16;;;;;;;21.85;5.10;;;;;;;12.93;100.00;101534.91;5081032;28;20048;-81
2022/07/28 05:16:42;;;;;;;23.92;5.70;;;;;;;12.84;100.00;101536.50;5082448;28;20032;-81
2022/07/28 05:19:08;;;;;;;14.98;4.75;;;;;;;12.91;100.00;101539.66;5064139;28;20028;-81
2022/07/28 05:21:34;;;;;;;15.23;5.10;;;;;;;12.99;100.00;101550.91;5066308;28;20032;-81
2022/07/28 05:23:59;;;;;;;29.08;7.25;;;;;;;13.03;100.00;101537.81;5066194;28;20036;-81
2022/07/28 05:26:27;;;;;;;26.73;5.53;;;;;;;13.12;100.00;101538.94;5095336;28;20042;-80
2022/07/28 05:28:53;;;;;;;22.67;5.95;;;;;;;13.21;100.00;101543.72;5060229;28;20044;-81
2022/07/28 05:31:19;;;;;;;28.60;5.43;;;;;;;13.39;100.00;101541.41;5097555;28;20482;-81
2022/07/28 05:33:45;;;;;;;18.05;5.65;;;;;;;13.46;100.00;101541.78;5082372;28;20048;-81
2022/07/28 05:36:11;;;;;;;12.15;5.25;;;;;;;13.56;100.00;101540.03;5064942;28;20036;-81
2022/07/28 05:38:37;;;;;;;28.35;4.95;;;;;;;13.69;100.00;101540.81;5098684;28;20467;-81
2022/07/28 05:41:02;;;;;;;29.80;5.45;;;;;;;13.69;100.00;101542.69;5065196;28;20399;-81
2022/07/28 05:43:28;;;;;;;21.67;5.28;;;;;;;13.77;100.00;101542.94;5086816;28;20040;-81
2022/07/28 05:45:53;;;;;;;34.95;6.00;;;;;;;13.78;100.00;101545.56;5064597;28;20032;-81
2022/07/28 05:48:20;;;;;;;26.08;5.72;;;;;;;13.88;100.00;101551.19;5100253;28;20490;-81
2022/07/28 05:50:47;;;;;;;25.40;5.07;;;;;;;14.13;100.00;101550.06;5081619;28;20044;-80
2022/07/28 05:53:12;;;;;;;38.05;7.05;;;;;;;14.16;100.00;101548.91;5079382;28;20028;-79
2022/07/28 05:55:38;;;;;;;22.48;5.15;;;;;;;14.25;100.00;101553.66;5097585;28;20024;-79
2022/07/28 05:58:03;;;;;;;25.90;5.63;;;;;;;14.28;100.00;101547.91;5074126;28;20036;-78
2022/07/28 06:00:32;;;;;;;26.10;5.07;;;;;;;14.60;100.00;101547.06;5045623;28;20043;-79
2022/07/28 06:03:00;;;;;;;25.30;4.82;;;;;;;14.92;100.00;101550.81;5065473;28;20032;-79
2022/07/28 06:05:28;;;;;;;19.13;4.90;;;;;;;15.27;100.00;101547.75;5077673;28;20028;-79
2022/07/28 06:07:53;;;;;;;28.60;4.25;;;;;;;15.31;100.00;101553.88;5079754;28;20031;-79
2022/07/28 06:10:21;;;;;;;30.75;4.40;;;;;;;15.40;100.00;101553.94;5081371;28;20039;-80
2022/07/28 06:12:49;;;;;;;29.98;5.53;;;;;;;15.40;100.00;101558.59;5099202;28;20420;-81
2022/07/28 06:15:20;;;;;;;21.20;4.28;;;;;;;15.49;100.00;101549.47;5079961;28;20475;-80
2022/07/28 06:17:46;;;;;;;30.92;4.00;;;;;;;15.33;100.00;101549.97;5099190;28;20497;-80
2022/07/28 06:20:12;;;;;;;22.52;3.35;;;;;;;15.34;100.00;101554.47;5079606;28;20503;-80
2022/07/28 06:22:46;;;;;;;18.13;3.22;;;;;;;15.49;100.00;101562.41;5060561;28;20024;-80
2022/07/28 06:25:20;;;;;;;23.02;4.32;;;;;;;15.59;100.00;101555.94;5097099;28;20082;-80
2022/07/28 06:27:47;;;;;;;18.73;3.67;;;;;;;15.59;100.00;101549.53;5062096;28;20492;-80
2022/07/28 06:30:14;;;;;;;23.92;3.65;;;;;;;15.71;100.00;101548.44;5098197;28;20513;-80
2022/07/28 06:32:40;;;;;;;25.20;4.03;;;;;;;15.79;100.00;101547.78;5077129;28;20040;-79
2022/07/28 06:35:06;;;;;;;25.27;4.78;;;;;;;15.96;100.00;101547.09;5096490;28;20067;-79
2022/07/28 06:37:32;;;;;;;20.05;4.30;;;;;;;15.60;100.00;101548.53;5077590;28;20028;-79
2022/07/28 06:39:57;;;;;;;19.23;3.30;;;;;;;15.78;100.00;101544.13;5079972;28;20039;-79
2022/07/28 06:42:23;;;;;;;18.17;3.65;;;;;;;15.93;100.00;101552.91;5077124;28;20040;-79
2022/07/28 06:44:51;;;;;;;22.35;3.65;;;;;;;15.90;100.00;101550.44;5052089;28;20452;-79
2022/07/28 06:47:18;;;;;;;15.85;3.42;;;;;;;16.18;100.00;101545.13;5097321;28;20458;-79
2022/07/28 06:49:43;;;;;;;16.20;3.17;;;;;;;16.50;100.00;101553.22;5092569;28;20043;-79
2022/07/28 06:52:09;;;;;;;19.73;3.13;;;;;;;16.75;100.00;101552.81;5075062;28;20044;-80
2022/07/28 06:54:35;;;;;;;22.85;3.63;;;;;;;17.31;99.42;101548.44;5051752;28;20127;-79
2022/07/28 06:57:01;;;;;;;21.60;3.70;;;;;;;17.45;96.00;101547.97;5079174;28;20126;-79
2022/07/28 06:59:26;;;;;;;27.70;5.28;;;;;;;17.86;92.15;101553.25;5066550;28;20047;-78
2022/07/28 07:01:52;;;;;;;21.52;3.45;;;;;;;17.69;92.83;101541.03;5092442;28;20131;-78
2022/07/28 07:04:17;;;;;;;13.75;2.65;;;;;;;18.28;89.27;101545.31;5092438;28;20047;-79
2022/07/28 07:06:43;;;;;;;19.20;2.55;;;;;;;18.71;87.53;101534.53;5063389;28;20039;-79
2022/07/28 07:09:09;;;;;;;20.55;3.17;;;;;;;18.55;89.35;101544.41;5064394;28;20035;-79
2022/07/28 07:11:37;;;;;;;17.92;2.72;;;;;;;18.25;89.55;101542.88;5081024;28;20166;-84
2022/07/28 07:14:03;;;;;;;18.27;4.00;;;;;;;17.89;89.07;101539.97;5065050;28;20062;-84
2022/07/28 07:16:28;;;;;;;16.75;3.53;;;;;;;17.60;91.51;101540.91;5079720;28;20043;-82
2022/07/28 07:18:54;;;;;;;14.73;2.33;;;;;;;17.82;87.76;101539.69;5060906;28;20036;-82
2022/07/28 07:21:20;;;;;;;18.27;2.60;;;;;;;18.15;87.20;101547.56;5067996;28;20024;-83
2022/07/28 07:23:46;;;;;;;18.88;2.90;;;;;;;18.29;86.47;101538.75;5097645;28;20028;-82
2022/07/28 07:26:12;;;;;;;12.95;2.80;;;;;;;18.44;86.57;101541.84;5048022;28;20094;-82
2022/07/28 07:28:40;;;;;;;13.20;2.40;;;;;;;19.71;81.04;101540.72;5064008;28;20105;-81
2022/07/28 07:31:07;;;;;;;13.27;2.50;;;;;;;19.63;77.59;101547.09;5046377;28;20032;-82
2022/07/28 07:33:32;;;;;;;18.90;2.88;;;;;;;19.39;80.84;101535.81;5079975;28;20048;-82
2022/07/28 07:35:58;;;;;;;11.23;2.42;;;;;;;20.08;79.74;101544.22;5062723;28;20039;-81
2022/07/28 07:38:23;;;;;;;12.57;2.42;;;;;;;20.54;75.69;101542.78;5063750;28;20028;-82
2022/07/28 07:40:50;;;;;;;17.33;2.95;;;;;;;20.58;73.07;101548.91;5081551;28;20035;-82
2022/07/28 07:43:17;;;;;;;17.45;2.38;;;;;;;19.92;77.54;101540.34;5081205;28;20116;-81
2022/07/28 07:45:43;;;;;;;30.88;3.55;;;;;;;20.22;74.93;101539.91;5080557;28;20027;-81
2022/07/28 07:48:08;;;;;;;12.98;2.25;;;;;;;20.54;75.20;101548.34;5095187;28;20111;-81
2022/07/28 07:50:34;;;;;;;11.05;2.30;;;;;;;21.26;71.98;101541.34;5079484;28;20141;-81
2022/07/28 07:53:00;;;;;;;19.63;2.55;;;;;;;20.96;73.61;101546.56;5081089;28;20107;-83
2022/07/28 07:55:26;;;;;;;19.70;2.55;;;;;;;21.17;71.69;101537.69;5048409;28;20024;-82
2022/07/28 07:57:52;;;;;;;22.00;2.38;;;;;;;20.88;72.90;101536.28;5064856;28;20091;-82
2022/07/28 08:00:17;;;;;;;19.63;2.40;;;;;;;20.26;73.89;101536.63;5064303;28;20067;-83
2022/07/28 08:02:43;;;;;;;24.65;2.55;;;;;;;20.37;74.28;101535.47;5046344;28;20036;-82
2022/07/28 08:05:09;;;;;;;20.80;1.92;;;;;;;20.21;75.12;101533.50;5045725;28;20104;-81
2022/07/28 08:07:35;;;;;;;10.18;1.92;;;;;;;19.87;76.55;101528.81;5064289;28;20028;-81
2022/07/28 08:10:01;;;;;;;8.27;1.77;;;;;;;20.19;75.52;101519.75;5063676;28;20400;-81
2022/07/28 08:12:27;;;;;;;12.63;2.17;;;;;;;20.71;72.16;101529.84;5080043;28;20024;-81
2022/07/28 08:14:55;;;;;;;13.00;2.20;;;;;;;21.41;71.26;101520.06;5080759;28;20492;-81
2022/07/28 08:17:21;;;;;;;20.23;1.92;;;;;;;21.44;69.11;101516.94;5078464;28;20062;-81
2022/07/28 08:19:47;;;;;;;13.00;1.70;;;;;;;21.73;66.92;101528.59;5098994;28;20073;-82
2022/07/28 08:22:14;;;;;;;14.90;1.85;;;;;;;22.51;65.64;101515.69;5047684;28;20127;-82
2022/07/28 08:24:40;;;;;;;9.30;1.92;;;;;;;22.29;65.83;101518.25;5081250;28;20050;-83
2022/07/28 08:27:05;;;;;;;16.05;2.03;;;;;;;22.28;64.19;101510.03;5080802;28;20040;-81
2022/07/28 08:29:31;;;;;;;10.45;1.50;;;;;;;22.41;63.18;101507.56;5097363;28;20156;-82
2022/07/28 08:31:56;;;;;;;7.28;1.60;;;;;;;22.40;62.82;101508.63;5079175;28;20036;-82
2022/07/28 08:34:22;;;;;;;13.75;1.58;;;;;;;22.99;60.11;101515.50;5079781;28;20048;-82
2022/07/28 08:36:48;;;;;;;12.15;1.73;;;;;;;23.82;57.75;101511.75;5063588;28;20391;-81
2022/07/28 08:39:13;;;;;;;12.50;1.30;;;;;;;23.25;60.31;101516.03;5062417;28;20028;-82
2022/07/28 08:41:43;;;;;;;15.13;1.95;;;;;;;23.31;58.54;101509.66;5097704;28;20035;-83
2022/07/28 08:44:14;;;;;;;22.75;2.03;;;;;;;23.13;59.87;101500.75;5065210;28;20085;-82
2022/07/28 08:46:42;;;;;;;12.73;2.03;;;;;;;22.90;59.96;101507.19;5065100;28;20070;-82
2022/07/28 08:49:08;;;;;;;10.43;2.20;;;;;;;23.17;59.75;101510.50;5062848;28;20499;-82
2022/07/28 08:51:35;;;;;;;8.23;1.40;;;;;;;22.47;62.54;101505.97;5033347;28;20059;-82
2022/07/28 08:54:02;;;;;;;9.43;1.67;;;;;;;22.56;63.61;101505.72;5102377;28;20032;-82
2022/07/28 08:56:29;;;;;;;16.45;2.05;;;;;;;23.58;59.79;101506.41;5083982;28;20035;-83
2022/07/28 08:58:55;;;;;;;13.13;2.10;;;;;;;23.47;59.56;101507.78;5058771;28;20035;-83
2022/07/28 09:01:22;;;;;;;12.88;1.60;;;;;;;23.89;56.42;101511.00;5023774;28;20333;-83
2022/07/28 09:03:48;;;;;;;8.32;1.90;;;;;;;24.05;55.58;101510.78;5083991;28;20495;-83
2022/07/28 09:06:14;;;;;;;13.02;1.92;;;;;;;24.36;55.62;101515.28;5052391;28;20406;-83
2022/07/28 09:08:39;;;;;;;14.52;2.00;;;;;;;23.74;56.96;101502.56;5050473;28;20043;-83
2022/07/28 09:11:06;;;;;;;7.60;1.50;;;;;;;23.80;56.82;101508.25;5069549;28;20043;-83
2022/07/28 09:13:34;;;;;;;5.50;1.35;;;;;;;24.04;58.11;101507.13;5071532;28;20027;-82
2022/07/28 09:15:59;;;;;;;8.82;1.90;;;;;;;23.89;57.43;101513.78;5088115;28;20036;-83
2022/07/28 09:18:25;;;;;;;14.98;1.83;;;;;;;24.42;54.00;101497.69;5087331;28;20039;-82
2022/07/28 09:20:51;;;;;;;4.80;1.35;;;;;;;24.52;54.77;101497.38;5083262;28;20036;-83
2022/07/28 09:23:16;;;;;;;7.32;1.40;;;;;;;24.14;54.59;101503.19;5065540;28;20050;-82
2022/07/28 09:25:42;;;;;;;11.82;1.83;;;;;;;23.97;56.96;101495.00;5083142;28;20192;-82
2022/07/28 09:28:13;;;;;;;8.98;1.80;;;;;;;24.39;54.37;101487.75;5101045;28;20024;-82
2022/07/28 09:30:41;;;;;;;15.00;2.22;;;;;;;23.89;57.47;101483.03;5064503;28;20032;-81
2022/07/28 09:33:20;;;;;;;7.63;1.33;;;;;;;24.66;54.60;101476.00;5096569;28;20046;-83
2022/07/28 09:35:47;;;;;;;11.38;1.60;;;;;;;24.54;53.15;101481.25;5083015;28;20119;-82
2022/07/28 09:38:14;;;;;;;8.98;1.63;;;;;;;24.28;55.69;101463.06;5082705;28;20037;-82
2022/07/28 09:40:41;;;;;;;9.05;1.42;;;;;;;24.83;52.88;101471.03;5061368;28;20024;-82
2022/07/28 09:43:11;;;;;;;20.13;1.83;;;;;;;24.21;54.38;101463.00;5080530;28;20395;-82
2022/07/28 09:45:37;;;;;;;7.03;1.98;;;;;;;24.58;55.85;101463.03;5081924;28;20550;-82
2022/07/28 09:48:13;;;;;;;10.52;1.55;;;;;;;24.51;56.30;101465.69;5046366;28;20040;-83
2022/07/28 09:50:41;;;;;;;18.23;1.73;;;;;;;24.66;55.08;101462.88;5066292;28;20078;-82
2022/07/28 09:53:25;;;;;;;14.00;1.50;;;;;;;24.65;54.83;101457.50;5086982;28;20067;-82
2022/07/28 09:55:59;;;;;;;9.95;1.55;;;;;;;24.20;54.53;101458.47;5065735;28;20391;-83
2022/07/28 09:58:25;;;;;;;7.63;1.38;;;;;;;24.42;53.34;101472.50;5101330;28;20034;-83
2022/07/28 10:01:02;;;;;;;6.72;1.40;;;;;;;24.00;55.72;101452.63;5083555;28;20032;-82
2022/07/28 10:03:27;;;;;;;16.83;1.58;;;;;;;24.31;52.82;101454.28;5101737;28;20040;-82
2022/07/28 10:05:53;;;;;;;11.90;1.63;;;;;;;24.55;54.26;101443.78;5083932;28;20036;-82
2022/07/28 10:08:37;;;;;;;7.53;1.45;;;;;;;24.20;52.83;101450.09;5047919;28;20032;-83
2022/07/28 10:11:02;;;;;;;9.50;1.20;;;;;;;24.26;52.45;101451.22;5065814;28;20036;-82
2022/07/28 10:13:28;;;;;;;9.13;1.75;;;;;;;24.61;52.99;101447.75;5065717;28;20028;-82
2022/07/28 10:16:10;;;;;;;13.02;1.45;;;;;;;24.15;54.48;101449.81;5046168;28;20086;-82
2022/07/28 10:18:39;;;;;;;;;;;;;;;24.78;54.74;101443.59;5049440;28;20036;-83
2022/07/28 10:21:14;;;;;;;6.00;1.33;;;;;;;24.76;53.76;101440.16;5097384;28;19920;-83
2022/07/28 10:23:46;;;;;;;11.48;1.50;;;;;;;24.64;53.36;101448.19;5065346;28;20434;-83
2022/07/28 10:26:12;;;;;;;6.07;1.40;;;;;;;24.83;52.35;101445.81;5097020;28;20036;-79
2022/07/28 10:28:48;;;;;;;28.77;1.60;;;;;;;24.39;53.99;101431.75;5046270;28;20032;-80
2022/07/28 10:31:24;;;;;;;16.08;1.20;;;;;;;24.52;54.40;101435.78;5098250;28;20047;-79
2022/07/28 10:33:52;;;;;;;7.18;1.30;;;;;;;24.20;51.20;101441.69;5063084;28;20075;-81
2022/07/28 10:36:22;;;;;;;12.82;1.55;;;;;;;24.59;49.81;101446.00;5098105;28;20027;-79
2022/07/28 10:38:49;;;;;;;12.02;1.30;;;;;;;24.19;50.59;101444.69;5079515;28;20032;-80
2022/07/28 10:41:17;;;;;;;9.27;1.83;;;;;;;24.33;51.13;101442.88;5064250;28;20563;-79
2022/07/28 10:43:43;;;;;;;8.75;1.63;;;;;;;24.84;49.22;101430.72;5071738;28;20039;-80
2022/07/28 10:46:10;;;;;;;7.10;1.25;;;;;;;24.38;48.90;101444.03;5078371;28;20024;-80
2022/07/28 10:48:37;;;;;;;7.60;1.27;;;;;;;24.47;51.02;101433.56;5079374;28;20078;-80
2022/07/28 10:51:03;;;;;;;4.70;0.98;;;;;;;24.89;50.32;101426.25;5098100;28;20039;-82
2022/07/28 10:53:32;;;;;;;15.88;1.85;;;;;;;24.87;49.61;101438.72;5061117;28;20097;-82
2022/07/28 10:56:04;;;;;;;11.95;1.20;;;;;;;25.17;48.68;101425.41;5097353;28;20391;-82
2022/07/28 10:58:29;;;;;;;6.68;1.20;;;;;;;24.88;49.59;101432.91;5098980;28;20055;-82
2022/07/28 11:00:54;;;;;;;12.45;1.38;;;;;;;24.98;50.22;101424.16;5098723;28;20039;-82
2022/07/28 11:03:45;;;;;;;7.03;1.00;;;;;;;24.94;49.68;101422.81;5078515;28;20097;-82
2022/07/28 11:06:32;;;;;;;7.25;1.60;;;;;;;25.37;47.35;101431.16;5080648;28;20036;-82
2022/07/28 11:09:18;;;;;;;9.55;1.15;;;;;;;24.86;48.69;101435.06;5066591;28;20433;-82
2022/07/28 11:11:48;;;;;;;11.07;1.30;;;;;;;24.53;50.16;101427.19;5082014;28;20556;-82
2022/07/28 11:14:30;;;;;;;9.70;1.50;;;;;;;25.01;47.68;101432.16;5080562;28;20479;-82
2022/07/28 11:17:02;;;;;;;;;;;;;;;24.73;49.19;101419.00;5060846;28;20131;-82
2022/07/28 11:19:29;;;;;;;6.50;1.10;;;;;;;24.68;49.19;101415.94;5099032;28;19938;-82
2022/07/28 11:22:13;;;;;;;9.00;1.10;;;;;;;24.92;48.75;101417.44;5080573;28;20028;-82
2022/07/28 11:24:57;;;;;;;12.80;1.98;;;;;;;25.13;48.27;101410.03;5080690;28;20379;-82